sensor_id;sensor_type;location;lat;lon;timestamp;temperature;humidity
31975;DHT22;18500;43.618;1.474;2022-10-26T06:12:24;14.00;1.00
31975;DHT22;18500;43.618;1.474;2022-10-26T06:14:51;14.00;1.00
31975;DHT22;18500;43.618;1.474;2022-10-26T06:22:59;14.10;1.00
31975;DHT22;18500;43.618;1.474;2022-10-26T06:31:03;14.20;1.00
31975;DHT22;18500;43.618;1.474;2022-10-26T06:33:29;14.20;1.00
31975;DHT22;18500;43.618;1.474;2022-10-26T06:36:11;14.20;1.00
31975;DHT22;18500;43.618;1.474;2022-10-26T06:38:40;14.10;1.00
31975;DHT22;18500;43.618;1.474;2022-10-26T06:41:10;14.10;1.00
31975;DHT22;18500;43.618;1.474;2022-10-26T06:43:39;14.10;1.00
31975;DHT22;18500;43.618;1.474;2022-10-26T06:46:47;14.10;1.00
31975;DHT22;18500;43.618;1.474;2022-10-26T06:52:04;14.10;1.00
31975;DHT22;18500;43.618;1.474;2022-10-26T06:54:52;14.10;1.00
31975;DHT22;18500;43.618;1.474;2022-10-26T06:57:24;14.20;1.00
31975;DHT22;18500;43.618;1.474;2022-10-26T06:59:57;14.30;1.00
31975;DHT22;18500;43.618;1.474;2022-10-26T07:02:25;14.40;1.00
31975;DHT22;18500;43.618;1.474;2022-10-26T07:04:51;14.50;1.00
31975;DHT22;18500;43.618;1.474;2022-10-26T07:07:21;14.50;1.00
31975;DHT22;18500;43.618;1.474;2022-10-26T07:09:48;14.60;1.00
31975;DHT22;18500;43.618;1.474;2022-10-26T07:12:14;14.50;1.00
31975;DHT22;18500;43.618;1.474;2022-10-26T07:14:40;14.50;1.00
31975;DHT22;18500;43.618;1.474;2022-10-26T07:17:05;14.50;1.00
31975;DHT22;18500;43.618;1.474;2022-10-26T07:19:31;14.50;1.00
31975;DHT22;18500;43.618;1.474;2022-10-26T07:21:57;14.50;1.00
31975;DHT22;18500;43.618;1.474;2022-10-26T07:24:24;14.50;1.00
31975;DHT22;18500;43.618;1.474;2022-10-26T07:26:53;14.60;1.00
31975;DHT22;18500;43.618;1.474;2022-10-26T07:29:20;14.60;1.00
31975;DHT22;18500;43.618;1.474;2022-10-26T07:31:45;14.60;1.00
31975;DHT22;18500;43.618;1.474;2022-10-26T07:34:11;14.60;1.00
31975;DHT22;18500;43.618;1.474;2022-10-26T07:36:37;14.70;1.00
31975;DHT22;18500;43.618;1.474;2022-10-26T07:39:04;14.80;1.00
31975;DHT22;18500;43.618;1.474;2022-10-26T07:41:30;14.90;1.00
31975;DHT22;18500;43.618;1.474;2022-10-26T07:43:56;15.00;1.00
31975;DHT22;18500;43.618;1.474;2022-10-26T07:46:22;15.00;1.00
31975;DHT22;18500;43.618;1.474;2022-10-26T07:48:47;15.10;1.00
31975;DHT22;18500;43.618;1.474;2022-10-26T07:51:13;15.20;1.00
31975;DHT22;18500;43.618;1.474;2022-10-26T07:53:39;15.30;1.00
31975;DHT22;18500;43.618;1.474;2022-10-26T07:56:05;15.30;1.00
31975;DHT22;18500;43.618;1.474;2022-10-26T07:58:31;15.40;1.00
31975;DHT22;18500;43.618;1.474;2022-10-26T08:00:57;15.40;1.00
31975;DHT22;18500;43.618;1.474;2022-10-26T08:03:29;15.50;1.00
31975;DHT22;18500;43.618;1.474;2022-10-26T08:05:54;15.50;1.00
31975;DHT22;18500;43.618;1.474;2022-10-26T08:08:20;15.60;1.00
31975;DHT22;18500;43.618;1.474;2022-10-26T08:10:46;15.70;1.00
31975;DHT22;18500;43.618;1.474;2022-10-26T08:13:13;15.80;1.00
31975;DHT22;18500;43.618;1.474;2022-10-26T08:15:39;15.90;1.00
31975;DHT22;18500;43.618;1.474;2022-10-26T08:18:05;16.00;1.00
31975;DHT22;18500;43.618;1.474;2022-10-26T08:20:32;16.10;1.00
31975;DHT22;18500;43.618;1.474;2022-10-26T08:22:58;16.20;1.00
31975;DHT22;18500;43.618;1.474;2022-10-26T08:25:26;16.30;1.00
31975;DHT22;18500;43.618;1.474;2022-10-26T08:27:52;16.40;1.00
31975;DHT22;18500;43.618;1.474;2022-10-26T08:30:18;16.50;1.00
31975;DHT22;18500;43.618;1.474;2022-10-26T08:32:44;16.60;1.00
31975;DHT22;18500;43.618;1.474;2022-10-26T08:35:10;16.60;1.00
31975;DHT22;18500;43.618;1.474;2022-10-26T08:37:35;16.70;1.00
31975;DHT22;18500;43.618;1.474;2022-10-26T08:40:03;16.80;1.00
31975;DHT22;18500;43.618;1.474;2022-10-26T08:42:32;16.90;1.00
31975;DHT22;18500;43.618;1.474;2022-10-26T08:45:07;17.00;1.00
31975;DHT22;18500;43.618;1.474;2022-10-26T08:47:39;17.20;1.00
31975;DHT22;18500;43.618;1.474;2022-10-26T08:50:28;17.30;1.00
31975;DHT22;18500;43.618;1.474;2022-10-26T08:53:28;17.30;1.00
31975;DHT22;18500;43.618;1.474;2022-10-26T08:56:05;17.60;1.00
31975;DHT22;18500;43.618;1.474;2022-10-26T08:58:39;17.90;1.00
31975;DHT22;18500;43.618;1.474;2022-10-26T09:01:07;18.20;1.00
31975;DHT22;18500;43.618;1.474;2022-10-26T09:03:33;18.40;1.00
31975;DHT22;18500;43.618;1.474;2022-10-26T09:19:58;19.10;1.00
31975;DHT22;18500;43.618;1.474;2022-10-26T09:25:22;19.30;1.00
31975;DHT22;18500;43.618;1.474;2022-10-26T09:27:50;19.40;1.00
31975;DHT22;18500;43.618;1.474;2022-10-26T09:30:18;19.50;1.00
31975;DHT22;18500;43.618;1.474;2022-10-26T09:33:13;19.50;1.00
31975;DHT22;18500;43.618;1.474;2022-10-26T09:35:47;19.70;1.00
31975;DHT22;18500;43.618;1.474;2022-10-26T09:38:33;19.80;1.00
31975;DHT22;18500;43.618;1.474;2022-10-26T09:41:04;20.00;1.00
31975;DHT22;18500;43.618;1.474;2022-10-26T09:43:47;19.90;1.00
31975;DHT22;18500;43.618;1.474;2022-10-26T09:46:33;19.80;1.00
31975;DHT22;18500;43.618;1.474;2022-10-26T09:49:04;19.70;1.00
31975;DHT22;18500;43.618;1.474;2022-10-26T09:51:35;19.70;1.00
31975;DHT22;18500;43.618;1.474;2022-10-26T09:54:11;19.60;1.00
31975;DHT22;18500;43.618;1.474;2022-10-26T09:56:38;19.60;1.00
31975;DHT22;18500;43.618;1.474;2022-10-26T09:59:05;19.60;1.00
31975;DHT22;18500;43.618;1.474;2022-10-26T10:01:34;19.60;1.00
31975;DHT22;18500;43.618;1.474;2022-10-26T10:06:42;19.70;1.00
31975;DHT22;18500;43.618;1.474;2022-10-26T10:09:21;19.70;1.00
31975;DHT22;18500;43.618;1.474;2022-10-26T10:11:55;19.70;1.00
31975;DHT22;18500;43.618;1.474;2022-10-26T10:14:27;19.70;1.00
31975;DHT22;18500;43.618;1.474;2022-10-26T10:16:59;19.60;1.00
31975;DHT22;18500;43.618;1.474;2022-10-26T10:19:31;19.60;1.00
31975;DHT22;18500;43.618;1.474;2022-10-26T10:21:59;19.60;1.00
31975;DHT22;18500;43.618;1.474;2022-10-26T10:24:33;19.60;1.00
31975;DHT22;18500;43.618;1.474;2022-10-26T10:29:42;19.60;1.00
31975;DHT22;18500;43.618;1.474;2022-10-26T10:34:54;19.90;1.00
31975;DHT22;18500;43.618;1.474;2022-10-26T10:37:36;20.20;1.00
31975;DHT22;18500;43.618;1.474;2022-10-26T10:40:08;20.50;1.00
31975;DHT22;18500;43.618;1.474;2022-10-26T10:42:41;20.70;1.00
31975;DHT22;18500;43.618;1.474;2022-10-26T10:45:20;20.90;1.00
31975;DHT22;18500;43.618;1.474;2022-10-26T10:51:11;21.60;1.00
31975;DHT22;18500;43.618;1.474;2022-10-26T10:53:55;21.80;1.00
31975;DHT22;18500;43.618;1.474;2022-10-26T10:56:50;22.00;1.00
31975;DHT22;18500;43.618;1.474;2022-10-26T10:59:37;22.00;1.00
31975;DHT22;18500;43.618;1.474;2022-10-26T11:07:23;22.10;1.00
31975;DHT22;18500;43.618;1.474;2022-10-26T11:09:52;21.90;1.00
31975;DHT22;18500;43.618;1.474;2022-10-26T11:12:25;21.80;1.00
31975;DHT22;18500;43.618;1.474;2022-10-26T11:15:00;21.60;1.00
31975;DHT22;18500;43.618;1.474;2022-10-26T11:20:19;21.20;1.00
31975;DHT22;18500;43.618;1.474;2022-10-26T11:25:32;20.90;1.00
31975;DHT22;18500;43.618;1.474;2022-10-26T11:30:54;20.80;1.00
31975;DHT22;18500;43.618;1.474;2022-10-26T11:33:25;20.70;1.00
31975;DHT22;18500;43.618;1.474;2022-10-26T11:36:04;20.70;1.00
31975;DHT22;18500;43.618;1.474;2022-10-26T11:38:47;20.70;1.00
31975;DHT22;18500;43.618;1.474;2022-10-26T11:41:25;20.70;1.00
31975;DHT22;18500;43.618;1.474;2022-10-26T11:44:17;20.80;1.00
31975;DHT22;18500;43.618;1.474;2022-10-26T11:46:48;20.90;1.00
31975;DHT22;18500;43.618;1.474;2022-10-26T11:49:56;20.90;1.00
31975;DHT22;18500;43.618;1.474;2022-10-26T11:52:31;21.00;1.00
31975;DHT22;18500;43.618;1.474;2022-10-26T11:54:59;21.10;1.00
31975;DHT22;18500;43.618;1.474;2022-10-26T11:57:27;21.10;1.00
31975;DHT22;18500;43.618;1.474;2022-10-26T12:02:37;21.10;1.00
31975;DHT22;18500;43.618;1.474;2022-10-26T12:05:10;21.10;1.00
31975;DHT22;18500;43.618;1.474;2022-10-26T12:07:46;21.10;1.00
31975;DHT22;18500;43.618;1.474;2022-10-26T12:10:28;21.20;1.00
31975;DHT22;18500;43.618;1.474;2022-10-26T12:12:57;21.40;1.00
31975;DHT22;18500;43.618;1.474;2022-10-26T12:15:40;21.60;1.00
31975;DHT22;18500;43.618;1.474;2022-10-26T12:18:26;21.60;1.00
31975;DHT22;18500;43.618;1.474;2022-10-26T12:21:06;21.80;1.00
31975;DHT22;18500;43.618;1.474;2022-10-26T12:23:37;22.00;1.00
31975;DHT22;18500;43.618;1.474;2022-10-26T12:28:47;22.10;1.00
31975;DHT22;18500;43.618;1.474;2022-10-26T12:31:48;22.30;1.00
31975;DHT22;18500;43.618;1.474;2022-10-26T12:34:22;22.50;1.00
31975;DHT22;18500;43.618;1.474;2022-10-26T12:47:58;22.30;1.00
31975;DHT22;18500;43.618;1.474;2022-10-26T12:52:52;22.30;1.00
31975;DHT22;18500;43.618;1.474;2022-10-26T12:55:26;22.40;1.00
31975;DHT22;18500;43.618;1.474;2022-10-26T12:58:03;22.50;1.00
31975;DHT22;18500;43.618;1.474;2022-10-26T13:00:40;22.40;1.00
31975;DHT22;18500;43.618;1.474;2022-10-26T13:08:51;22.30;1.00
31975;DHT22;18500;43.618;1.474;2022-10-26T13:11:29;22.40;1.00
31975;DHT22;18500;43.618;1.474;2022-10-26T13:14:04;22.40;1.00
31975;DHT22;18500;43.618;1.474;2022-10-26T13:16:31;22.30;1.00
31975;DHT22;18500;43.618;1.474;2022-10-26T13:18:58;22.40;1.00
31975;DHT22;18500;43.618;1.474;2022-10-26T13:21:25;22.30;1.00
31975;DHT22;18500;43.618;1.474;2022-10-26T13:23:55;22.10;1.00
31975;DHT22;18500;43.618;1.474;2022-10-26T13:26:24;22.10;1.00
31975;DHT22;18500;43.618;1.474;2022-10-26T13:28:52;22.10;1.00
31975;DHT22;18500;43.618;1.474;2022-10-26T13:33:57;22.40;1.00
31975;DHT22;18500;43.618;1.474;2022-10-26T13:36:46;22.50;1.00
31975;DHT22;18500;43.618;1.474;2022-10-26T13:39:21;22.60;1.00
31975;DHT22;18500;43.618;1.474;2022-10-26T13:41:50;22.50;1.00
31975;DHT22;18500;43.618;1.474;2022-10-26T13:44:40;22.80;1.00
31975;DHT22;18500;43.618;1.474;2022-10-26T13:47:14;22.90;1.00
31975;DHT22;18500;43.618;1.474;2022-10-26T13:49:44;22.90;1.00
31975;DHT22;18500;43.618;1.474;2022-10-26T13:52:41;23.10;1.00
31975;DHT22;18500;43.618;1.474;2022-10-26T13:55:28;23.40;1.00
31975;DHT22;18500;43.618;1.474;2022-10-26T13:58:10;23.50;1.00
31975;DHT22;18500;43.618;1.474;2022-10-26T14:00:39;23.50;1.00
31975;DHT22;18500;43.618;1.474;2022-10-26T14:03:17;23.50;1.00
31975;DHT22;18500;43.618;1.474;2022-10-26T14:05:47;23.30;1.00
31975;DHT22;18500;43.618;1.474;2022-10-26T14:08:16;23.20;1.00
31975;DHT22;18500;43.618;1.474;2022-10-26T14:10:45;23.10;1.00
31975;DHT22;18500;43.618;1.474;2022-10-26T14:13:16;23.00;1.00
31975;DHT22;18500;43.618;1.474;2022-10-26T14:15:45;23.00;1.00
31975;DHT22;18500;43.618;1.474;2022-10-26T14:18:25;23.00;1.00
31975;DHT22;18500;43.618;1.474;2022-10-26T14:21:04;23.10;1.00
31975;DHT22;18500;43.618;1.474;2022-10-26T14:24:17;22.90;1.00
31975;DHT22;18500;43.618;1.474;2022-10-26T14:26:39;22.80;1.00
31975;DHT22;18500;43.618;1.474;2022-10-26T14:29:21;22.80;1.00
31975;DHT22;18500;43.618;1.474;2022-10-26T14:31:47;22.80;1.00
31975;DHT22;18500;43.618;1.474;2022-10-26T14:34:14;22.80;1.00
31975;DHT22;18500;43.618;1.474;2022-10-26T14:39:40;23.00;1.00
31975;DHT22;18500;43.618;1.474;2022-10-26T14:42:27;23.20;1.00
31975;DHT22;18500;43.618;1.474;2022-10-26T14:44:55;23.40;1.00
31975;DHT22;18500;43.618;1.474;2022-10-26T14:49:48;23.70;1.00
31975;DHT22;18500;43.618;1.474;2022-10-26T14:52:21;23.50;1.00
31975;DHT22;18500;43.618;1.474;2022-10-26T14:55:18;23.50;1.00
31975;DHT22;18500;43.618;1.474;2022-10-26T14:57:45;23.50;1.00
31975;DHT22;18500;43.618;1.474;2022-10-26T15:00:17;23.50;1.00
31975;DHT22;18500;43.618;1.474;2022-10-26T15:02:46;23.40;1.00
31975;DHT22;18500;43.618;1.474;2022-10-26T15:07:43;23.20;1.00
31975;DHT22;18500;43.618;1.474;2022-10-26T15:13:13;23.10;1.00
31975;DHT22;18500;43.618;1.474;2022-10-26T15:15:43;23.10;1.00
31975;DHT22;18500;43.618;1.474;2022-10-26T15:18:30;23.10;1.00
31975;DHT22;18500;43.618;1.474;2022-10-26T15:20:58;22.80;1.00
31975;DHT22;18500;43.618;1.474;2022-10-26T15:23:25;22.80;1.00
31975;DHT22;18500;43.618;1.474;2022-10-26T15:25:58;22.70;1.00
31975;DHT22;18500;43.618;1.474;2022-10-26T15:28:36;22.70;1.00
31975;DHT22;18500;43.618;1.474;2022-10-26T15:33:40;22.50;1.00
31975;DHT22;18500;43.618;1.474;2022-10-26T15:38:33;22.50;1.00
31975;DHT22;18500;43.618;1.474;2022-10-26T15:40:58;22.50;1.00
31975;DHT22;18500;43.618;1.474;2022-10-26T15:43:24;22.50;1.00
31975;DHT22;18500;43.618;1.474;2022-10-26T15:45:50;22.40;1.00
31975;DHT22;18500;43.618;1.474;2022-10-26T15:48:25;22.50;1.00
31975;DHT22;18500;43.618;1.474;2022-10-26T15:50:54;22.60;1.00
31975;DHT22;18500;43.618;1.474;2022-10-26T15:53:24;22.60;1.00
31975;DHT22;18500;43.618;1.474;2022-10-26T15:55:55;22.50;1.00
31975;DHT22;18500;43.618;1.474;2022-10-26T15:58:22;22.40;1.00
31975;DHT22;18500;43.618;1.474;2022-10-26T16:00:47;22.20;1.00
31975;DHT22;18500;43.618;1.474;2022-10-26T16:03:16;22.10;1.00
31975;DHT22;18500;43.618;1.474;2022-10-26T16:05:43;22.10;1.00
31975;DHT22;18500;43.618;1.474;2022-10-26T16:08:14;21.90;1.00
31975;DHT22;18500;43.618;1.474;2022-10-26T16:10:41;21.80;1.00
31975;DHT22;18500;43.618;1.474;2022-10-26T16:13:11;21.70;1.00
31975;DHT22;18500;43.618;1.474;2022-10-26T16:15:37;21.70;1.00
31975;DHT22;18500;43.618;1.474;2022-10-26T16:18:03;21.70;1.00
31975;DHT22;18500;43.618;1.474;2022-10-26T16:20:29;21.60;1.00
31975;DHT22;18500;43.618;1.474;2022-10-26T16:22:55;21.60;1.00
31975;DHT22;18500;43.618;1.474;2022-10-26T16:25:25;21.50;1.00
31975;DHT22;18500;43.618;1.474;2022-10-26T16:27:52;21.40;1.00
31975;DHT22;18500;43.618;1.474;2022-10-26T16:30:19;21.30;1.00
31975;DHT22;18500;43.618;1.474;2022-10-26T16:32:46;21.30;1.00
31975;DHT22;18500;43.618;1.474;2022-10-26T16:35:12;21.20;1.00
31975;DHT22;18500;43.618;1.474;2022-10-26T16:37:38;21.30;1.00
31975;DHT22;18500;43.618;1.474;2022-10-26T16:40:05;21.20;1.00
31975;DHT22;18500;43.618;1.474;2022-10-26T16:42:31;21.10;1.00
31975;DHT22;18500;43.618;1.474;2022-10-26T16:44:57;21.10;1.00
31975;DHT22;18500;43.618;1.474;2022-10-26T16:47:23;21.10;1.00
31975;DHT22;18500;43.618;1.474;2022-10-26T16:49:49;21.10;1.00
31975;DHT22;18500;43.618;1.474;2022-10-26T16:52:15;21.00;1.00
31975;DHT22;18500;43.618;1.474;2022-10-26T16:54:41;20.90;1.00
31975;DHT22;18500;43.618;1.474;2022-10-26T16:57:07;20.80;1.00
31975;DHT22;18500;43.618;1.474;2022-10-26T16:59:32;20.80;1.00
31975;DHT22;18500;43.618;1.474;2022-10-26T17:01:58;20.70;1.00
31975;DHT22;18500;43.618;1.474;2022-10-26T17:04:24;20.70;1.00
31975;DHT22;18500;43.618;1.474;2022-10-26T17:06:50;20.70;1.00
31975;DHT22;18500;43.618;1.474;2022-10-26T17:09:15;20.70;1.00
31975;DHT22;18500;43.618;1.474;2022-10-26T17:11:41;20.70;1.00
31975;DHT22;18500;43.618;1.474;2022-10-26T17:14:07;20.70;1.00
31975;DHT22;18500;43.618;1.474;2022-10-26T17:16:32;20.70;1.00
31975;DHT22;18500;43.618;1.474;2022-10-26T17:19:01;20.60;1.00
31975;DHT22;18500;43.618;1.474;2022-10-26T17:21:34;20.60;1.00
31975;DHT22;18500;43.618;1.474;2022-10-26T17:24:01;20.50;1.00
31975;DHT22;18500;43.618;1.474;2022-10-26T17:26:27;20.50;1.00
31975;DHT22;18500;43.618;1.474;2022-10-26T17:28:55;20.40;1.00
31975;DHT22;18500;43.618;1.474;2022-10-26T17:31:22;20.40;1.00
31975;DHT22;18500;43.618;1.474;2022-10-26T17:33:48;20.30;1.00
31975;DHT22;18500;43.618;1.474;2022-10-26T17:36:16;20.20;1.00
31975;DHT22;18500;43.618;1.474;2022-10-26T17:38:46;20.00;1.00
31975;DHT22;18500;43.618;1.474;2022-10-26T17:41:14;20.00;1.00
31975;DHT22;18500;43.618;1.474;2022-10-26T17:43:41;19.90;1.00
31975;DHT22;18500;43.618;1.474;2022-10-26T17:46:10;19.90;1.00
31975;DHT22;18500;43.618;1.474;2022-10-26T17:48:35;19.90;1.00
31975;DHT22;18500;43.618;1.474;2022-10-26T17:51:03;19.80;1.00
31975;DHT22;18500;43.618;1.474;2022-10-26T17:53:29;19.80;1.00
31975;DHT22;18500;43.618;1.474;2022-10-26T17:56:06;19.80;1.00
31975;DHT22;18500;43.618;1.474;2022-10-26T17:58:33;19.70;1.00
31975;DHT22;18500;43.618;1.474;2022-10-26T18:01:01;19.60;1.00
31975;DHT22;18500;43.618;1.474;2022-10-26T18:03:27;19.50;1.00
31975;DHT22;18500;43.618;1.474;2022-10-26T18:05:52;19.50;1.00
31975;DHT22;18500;43.618;1.474;2022-10-26T18:08:18;19.60;1.00
31975;DHT22;18500;43.618;1.474;2022-10-26T18:10:52;19.50;1.00
31975;DHT22;18500;43.618;1.474;2022-10-26T18:13:20;19.40;1.00
31975;DHT22;18500;43.618;1.474;2022-10-26T18:15:46;19.40;1.00
31975;DHT22;18500;43.618;1.474;2022-10-26T18:18:12;19.40;1.00
31975;DHT22;18500;43.618;1.474;2022-10-26T18:20:37;19.20;1.00
31975;DHT22;18500;43.618;1.474;2022-10-26T18:23:04;19.20;1.00
31975;DHT22;18500;43.618;1.474;2022-10-26T18:25:29;19.20;1.00
31975;DHT22;18500;43.618;1.474;2022-10-26T18:27:58;19.10;1.00
31975;DHT22;18500;43.618;1.474;2022-10-26T18:30:24;19.10;1.00
31975;DHT22;18500;43.618;1.474;2022-10-26T18:32:50;19.10;1.00
31975;DHT22;18500;43.618;1.474;2022-10-26T18:35:17;19.10;1.00
31975;DHT22;18500;43.618;1.474;2022-10-26T18:37:43;19.10;1.00
31975;DHT22;18500;43.618;1.474;2022-10-26T18:40:10;19.00;1.00
31975;DHT22;18500;43.618;1.474;2022-10-26T18:42:36;19.00;1.00
31975;DHT22;18500;43.618;1.474;2022-10-26T18:45:02;19.10;1.00
31975;DHT22;18500;43.618;1.474;2022-10-26T18:47:29;19.10;1.00
31975;DHT22;18500;43.618;1.474;2022-10-26T18:49:55;19.10;1.00
31975;DHT22;18500;43.618;1.474;2022-10-26T18:52:21;19.00;1.00
31975;DHT22;18500;43.618;1.474;2022-10-26T18:54:55;19.00;1.00
31975;DHT22;18500;43.618;1.474;2022-10-26T18:57:21;19.00;1.00
31975;DHT22;18500;43.618;1.474;2022-10-26T18:59:53;19.00;1.00
31975;DHT22;18500;43.618;1.474;2022-10-26T19:02:19;19.00;1.00
31975;DHT22;18500;43.618;1.474;2022-10-26T19:04:46;18.90;1.00
31975;DHT22;18500;43.618;1.474;2022-10-26T19:07:12;18.80;1.00
31975;DHT22;18500;43.618;1.474;2022-10-26T19:09:37;18.70;1.00
31975;DHT22;18500;43.618;1.474;2022-10-26T19:12:05;18.70;1.00
31975;DHT22;18500;43.618;1.474;2022-10-26T19:14:30;18.70;1.00
31975;DHT22;18500;43.618;1.474;2022-10-26T19:16:56;18.70;1.00
31975;DHT22;18500;43.618;1.474;2022-10-26T19:19:22;18.60;1.00
31975;DHT22;18500;43.618;1.474;2022-10-26T19:21:49;18.50;1.00
31975;DHT22;18500;43.618;1.474;2022-10-26T19:24:19;18.30;1.00
31975;DHT22;18500;43.618;1.474;2022-10-26T19:26:46;18.20;1.00
31975;DHT22;18500;43.618;1.474;2022-10-26T19:29:13;18.10;1.00
31975;DHT22;18500;43.618;1.474;2022-10-26T19:31:39;18.00;1.00
31975;DHT22;18500;43.618;1.474;2022-10-26T19:34:05;18.00;1.00
31975;DHT22;18500;43.618;1.474;2022-10-26T19:36:31;18.10;1.00
31975;DHT22;18500;43.618;1.474;2022-10-26T19:38:57;18.10;1.00
31975;DHT22;18500;43.618;1.474;2022-10-26T19:41:24;18.20;1.00
31975;DHT22;18500;43.618;1.474;2022-10-26T19:43:53;18.20;1.00
31975;DHT22;18500;43.618;1.474;2022-10-26T19:46:21;18.30;1.00
31975;DHT22;18500;43.618;1.474;2022-10-26T19:48:52;18.50;1.00
31975;DHT22;18500;43.618;1.474;2022-10-26T19:51:19;18.40;1.00
31975;DHT22;18500;43.618;1.474;2022-10-26T19:53:45;18.40;1.00
31975;DHT22;18500;43.618;1.474;2022-10-26T19:56:11;18.40;1.00
31975;DHT22;18500;43.618;1.474;2022-10-26T19:58:39;18.40;1.00
31975;DHT22;18500;43.618;1.474;2022-10-26T20:01:05;18.40;1.00
31975;DHT22;18500;43.618;1.474;2022-10-26T20:03:31;18.40;1.00
31975;DHT22;18500;43.618;1.474;2022-10-26T20:05:58;18.40;1.00
31975;DHT22;18500;43.618;1.474;2022-10-26T20:08:26;18.30;1.00
31975;DHT22;18500;43.618;1.474;2022-10-26T20:10:54;18.30;1.00
31975;DHT22;18500;43.618;1.474;2022-10-26T20:13:21;18.30;1.00
31975;DHT22;18500;43.618;1.474;2022-10-26T20:15:48;18.30;1.00
31975;DHT22;18500;43.618;1.474;2022-10-26T20:18:15;18.30;1.00
31975;DHT22;18500;43.618;1.474;2022-10-26T20:20:41;18.30;1.00
31975;DHT22;18500;43.618;1.474;2022-10-26T20:23:08;18.30;1.00
31975;DHT22;18500;43.618;1.474;2022-10-26T20:25:35;18.30;1.00
31975;DHT22;18500;43.618;1.474;2022-10-26T20:28:02;18.30;1.00
31975;DHT22;18500;43.618;1.474;2022-10-26T20:30:28;18.30;1.00
31975;DHT22;18500;43.618;1.474;2022-10-26T20:32:55;18.40;1.00
31975;DHT22;18500;43.618;1.474;2022-10-26T20:35:21;18.30;1.00
31975;DHT22;18500;43.618;1.474;2022-10-26T20:37:47;18.30;1.00
31975;DHT22;18500;43.618;1.474;2022-10-26T20:40:13;18.30;1.00
31975;DHT22;18500;43.618;1.474;2022-10-26T20:42:39;18.30;1.00
31975;DHT22;18500;43.618;1.474;2022-10-26T20:45:09;18.30;1.00
31975;DHT22;18500;43.618;1.474;2022-10-26T20:47:37;18.30;1.00
31975;DHT22;18500;43.618;1.474;2022-10-26T20:50:04;18.20;1.00
31975;DHT22;18500;43.618;1.474;2022-10-26T20:55:52;18.20;1.00
31975;DHT22;18500;43.618;1.474;2022-10-26T20:58:52;18.20;1.00
31975;DHT22;18500;43.618;1.474;2022-10-26T21:01:24;18.10;1.00
31975;DHT22;18500;43.618;1.474;2022-10-26T21:03:51;18.00;1.00
31975;DHT22;18500;43.618;1.474;2022-10-26T21:06:17;18.00;1.00
31975;DHT22;18500;43.618;1.474;2022-10-26T21:08:43;17.90;1.00
31975;DHT22;18500;43.618;1.474;2022-10-26T21:11:08;17.80;1.00
31975;DHT22;18500;43.618;1.474;2022-10-26T21:13:34;17.80;1.00
31975;DHT22;18500;43.618;1.474;2022-10-26T21:16:04;17.80;1.00
31975;DHT22;18500;43.618;1.474;2022-10-26T21:18:31;17.80;1.00
31975;DHT22;18500;43.618;1.474;2022-10-26T21:20:58;17.80;1.00
31975;DHT22;18500;43.618;1.474;2022-10-26T21:23:31;17.80;1.00
31975;DHT22;18500;43.618;1.474;2022-10-26T21:25:57;17.70;1.00
31975;DHT22;18500;43.618;1.474;2022-10-26T21:28:24;17.70;1.00
31975;DHT22;18500;43.618;1.474;2022-10-26T21:30:49;17.70;1.00
31975;DHT22;18500;43.618;1.474;2022-10-26T21:33:15;17.70;1.00
31975;DHT22;18500;43.618;1.474;2022-10-26T21:35:41;17.60;1.00
31975;DHT22;18500;43.618;1.474;2022-10-26T21:38:06;17.60;1.00
31975;DHT22;18500;43.618;1.474;2022-10-26T21:40:32;17.60;1.00
31975;DHT22;18500;43.618;1.474;2022-10-26T21:42:58;17.60;1.00
31975;DHT22;18500;43.618;1.474;2022-10-26T21:45:23;17.70;1.00
31975;DHT22;18500;43.618;1.474;2022-10-26T21:47:52;17.60;1.00
